Time;durP1;ratioP1;P1;durP2;ratioP2;P2;SDS_P1;SDS_P2;PMS_P1;PMS_P2;Temp;Humidity;BMP_temperature;BMP_pressure;BME280_temperature;BME280_humidity;BME280_pressure;Samples;Min_cycle;Max_cycle;Signal;HPM_P1;HPM_P2
2023/08/15 00:02:16;;;;;;;9.73;5.70;;;;;;;;;;4935518;28;20051;-81
2023/08/15 00:04:43;;;;;;;10.98;7.07;;;;;;;;;;4926612;28;20045;-81
2023/08/15 00:07:09;;;;;;;7.35;5.93;;;;;;;;;;4919622;28;20058;-81
2023/08/15 00:09:35;;;;;;;10.02;6.50;;;;;;;;;;4936411;28;20047;-81
2023/08/15 00:12:02;;;;;;;8.43;6.30;;;;;;;;;;4918207;28;20059;-80
2023/08/15 00:14:28;;;;;;;9.57;5.80;;;;;;;;;;4920144;28;20525;-81
2023/08/15 00:16:54;;;;;;;11.77;6.82;;;;;;;;;;4906323;28;20053;-81
2023/08/15 00:19:20;;;;;;;19.98;6.95;;;;;;;;;;4917832;28;20945;-81
2023/08/15 00:21:46;;;;;;;11.43;8.02;;;;;;;;;;4919032;28;20047;-81
2023/08/15 00:24:12;;;;;;;14.50;7.28;;;;;;;;;;4919779;28;20044;-80
2023/08/15 00:26:38;;;;;;;14.57;7.03;;;;;;;;;;4930209;28;20122;-80
2023/08/15 00:29:05;;;;;;;15.48;7.85;;;;;;;;;;4921030;28;20039;-80
2023/08/15 00:31:31;;;;;;;13.07;6.65;;;;;;;;;;4938740;28;20047;-81
2023/08/15 00:33:57;;;;;;;15.30;7.57;;;;;;;;;;4925411;28;20043;-80
2023/08/15 00:36:23;;;;;;;10.55;7.20;;;;;;;;;;4923084;28;20047;-80
2023/08/15 00:38:49;;;;;;;16.55;8.27;;;;;;;;;;4921535;28;20074;-81
2023/08/15 00:41:15;;;;;;;11.50;7.70;;;;;;;;;;4902011;28;20880;-80
2023/08/15 00:43:41;;;;;;;12.68;7.63;;;;;;;;;;4913173;28;20043;-80
2023/08/15 00:46:08;;;;;;;11.15;7.88;;;;;;;;;;4911817;28;20061;-81
2023/08/15 00:48:34;;;;;;;14.50;6.95;;;;;;;;;;4913908;28;20051;-80
2023/08/15 00:51:01;;;;;;;10.60;6.75;;;;;;;;;;4903167;28;20039;-80
2023/08/15 00:53:29;;;;;;;13.32;6.63;;;;;;;;;;4910591;28;20131;-80
2023/08/15 00:55:56;;;;;;;10.45;6.90;;;;;;;;;;4913535;28;20053;-81
2023/08/15 00:58:22;;;;;;;12.15;7.28;;;;;;;;;;4903815;28;20138;-81
2023/08/15 01:00:49;;;;;;;13.45;7.55;;;;;;;;;;4933608;28;20047;-80
2023/08/15 01:03:15;;;;;;;9.52;6.75;;;;;;;;;;4916339;28;20137;-80
2023/08/15 01:05:42;;;;;;;17.08;8.10;;;;;;;;;;4908885;28;20105;-79
2023/08/15 01:08:08;;;;;;;10.13;6.60;;;;;;;;;;4912433;28;20079;-82
2023/08/15 01:10:34;;;;;;;14.48;7.63;;;;;;;;;;4902643;28;22067;-78
2023/08/15 01:13:09;;;;;;;14.52;7.70;;;;;;;;;;4915771;29;20054;-81
2023/08/15 01:15:38;;;;;;;12.00;7.50;;;;;;;;;;4898786;29;21024;-80
2023/08/15 01:18:04;;;;;;;10.20;7.43;;;;;;;;;;4912012;28;20036;-82
2023/08/15 01:20:33;;;;;;;8.95;7.25;;;;;;;;;;4911863;29;20066;-80
2023/08/15 01:23:05;;;;;;;17.17;8.30;;;;;;;;;;4913913;28;20054;-81
2023/08/15 01:25:32;;;;;;;19.23;8.68;;;;;;;;;;4915283;29;20055;-81
2023/08/15 01:27:58;;;;;;;21.70;7.97;;;;;;;;;;4904472;29;20047;-80
2023/08/15 01:30:25;;;;;;;16.75;8.57;;;;;;;;;;4918565;29;20052;-80
2023/08/15 01:32:51;;;;;;;13.52;8.00;;;;;;;;;;4912515;29;20119;-79
2023/08/15 01:35:23;;;;;;;22.65;9.10;;;;;;;;;;4910326;28;20484;-81
2023/08/15 01:37:53;;;;;;;14.18;9.38;;;;;;;;;;4910615;29;20074;-81
2023/08/15 01:40:19;;;;;;;22.35;9.50;;;;;;;;;;4931781;28;20043;-81
2023/08/15 01:42:46;;;;;;;22.38;8.95;;;;;;;;;;4913622;28;20036;-81
2023/08/15 01:45:12;;;;;;;19.63;9.02;;;;;;;;;;4917510;28;20203;-81
2023/08/15 01:47:40;;;;;;;22.85;9.35;;;;;;;;;;4915338;29;20044;-80
2023/08/15 01:50:06;;;;;;;17.63;9.00;;;;;;;;;;4922721;28;20500;-80
2023/08/15 01:52:33;;;;;;;22.75;10.15;;;;;;;;;;4900735;29;20043;-81
2023/08/15 01:54:59;;;;;;;17.23;10.07;;;;;;;;;;4918905;28;20035;-81
2023/08/15 01:57:25;;;;;;;15.73;9.23;;;;;;;;;;4914535;29;20142;-81
2023/08/15 01:59:51;;;;;;;15.70;9.60;;;;;;;;;;4908074;29;20129;-80
2023/08/15 02:02:17;;;;;;;15.63;9.60;;;;;;;;;;4910082;29;20058;-82
2023/08/15 02:04:43;;;;;;;13.73;9.45;;;;;;;;;;4888656;29;20191;-81
2023/08/15 02:07:09;;;;;;;14.88;9.55;;;;;;;;;;4918351;29;20039;-81
2023/08/15 02:09:35;;;;;;;15.82;9.55;;;;;;;;;;4916517;29;20044;-81
2023/08/15 02:12:01;;;;;;;15.48;9.05;;;;;;;;;;4906692;28;20059;-82
2023/08/15 02:14:27;;;;;;;22.67;8.98;;;;;;;;;;4912879;28;20803;-80
2023/08/15 02:16:54;;;;;;;15.30;8.70;;;;;;;;;;4914617;28;20392;-80
2023/08/15 02:19:20;;;;;;;12.65;9.10;;;;;;;;;;4916091;28;20075;-80
2023/08/15 02:21:46;;;;;;;16.83;8.75;;;;;;;;;;4917058;28;20127;-80
2023/08/15 02:24:12;;;;;;;18.20;9.07;;;;;;;;;;4904337;28;20082;-81
2023/08/15 02:26:38;;;;;;;16.85;9.23;;;;;;;;;;4883340;28;20116;-81
2023/08/15 02:29:04;;;;;;;17.02;9.77;;;;;;;;;;4908363;28;20036;-81
2023/08/15 02:31:31;;;;;;;22.65;9.80;;;;;;;;;;4908106;28;20040;-80
2023/08/15 02:33:57;;;;;;;17.20;9.73;;;;;;;;;;4911797;28;20472;-80
2023/08/15 02:36:23;;;;;;;15.70;9.77;;;;;;;;;;4906860;28;20471;-80
2023/08/15 02:38:49;;;;;;;13.40;9.18;;;;;;;;;;4910724;28;20051;-81
2023/08/15 02:41:15;;;;;;;16.05;9.95;;;;;;;;;;4906944;28;20467;-81
2023/08/15 02:43:41;;;;;;;15.45;9.80;;;;;;;;;;4919927;28;20043;-81
2023/08/15 02:46:07;;;;;;;14.20;9.50;;;;;;;;;;4926790;28;21376;-80
2023/08/15 02:48:33;;;;;;;15.00;9.13;;;;;;;;;;4920298;28;20051;-81
2023/08/15 02:50:59;;;;;;;13.48;10.00;;;;;;;;;;4890525;28;20043;-81
2023/08/15 02:53:25;;;;;;;13.68;9.50;;;;;;;;;;4910362;28;20158;-80
2023/08/15 02:55:52;;;;;;;14.75;9.55;;;;;;;;;;4927938;28;20047;-81
2023/08/15 02:58:18;;;;;;;18.05;10.82;;;;;;;;;;4911157;28;20050;-81
2023/08/15 03:00:44;;;;;;;16.13;10.13;;;;;;;;;;4892976;28;20059;-81
2023/08/15 03:03:10;;;;;;;18.95;10.73;;;;;;;;;;4926368;28;20189;-80
2023/08/15 03:05:39;;;;;;;19.23;10.55;;;;;;;;;;4907961;28;20563;-80
2023/08/15 03:08:06;;;;;;;13.55;9.82;;;;;;;;;;4901897;28;20043;-80
2023/08/15 03:10:35;;;;;;;15.75;9.82;;;;;;;;;;4919344;28;20182;-81
2023/08/15 03:13:01;;;;;;;17.33;10.70;;;;;;;;;;4900234;28;20106;-79
2023/08/15 03:15:27;;;;;;;21.08;11.43;;;;;;;;;;4930012;28;20384;-80
2023/08/15 03:17:54;;;;;;;17.02;11.18;;;;;;;;;;4936624;28;20051;-80
2023/08/15 03:20:21;;;;;;;15.63;11.05;;;;;;;;;;4914982;28;20054;-80
2023/08/15 03:22:47;;;;;;;15.75;10.85;;;;;;;;;;4905150;28;20046;-81
2023/08/15 03:25:13;;;;;;;16.02;10.43;;;;;;;;;;4922953;28;20085;-81
2023/08/15 03:27:39;;;;;;;17.80;11.70;;;;;;;;;;4919629;28;20058;-80
2023/08/15 03:30:06;;;;;;;16.20;11.15;;;;;;;;;;4906096;28;20043;-80
2023/08/15 03:32:33;;;;;;;14.80;11.35;;;;;;;;;;4912472;28;20043;-80
2023/08/15 03:34:59;;;;;;;18.95;11.50;;;;;;;;;;4932425;28;20644;-80
2023/08/15 03:37:26;;;;;;;22.48;11.23;;;;;;;;;;4902030;28;20054;-81
2023/08/15 03:39:52;;;;;;;20.88;11.50;;;;;;;;;;4907320;28;20054;-80
2023/08/15 03:42:18;;;;;;;18.90;12.90;;;;;;;;;;4904987;28;20136;-80
2023/08/15 03:44:44;;;;;;;24.35;11.85;;;;;;;;;;4904349;28;20055;-82
2023/08/15 03:47:10;;;;;;;20.45;12.05;;;;;;;;;;4903302;28;20047;-79
2023/08/15 03:49:37;;;;;;;22.35;12.85;;;;;;;;;;4918296;28;20119;-80
2023/08/15 03:52:04;;;;;;;19.38;12.52;;;;;;;;;;4887797;28;20743;-81
2023/08/15 03:54:30;;;;;;;18.52;13.35;;;;;;;;;;4924318;28;20532;-80
2023/08/15 03:56:56;;;;;;;23.33;13.38;;;;;;;;;;4921829;28;20043;-81
2023/08/15 03:59:22;;;;;;;18.40;12.32;;;;;;;;;;4931758;28;20047;-82
2023/08/15 04:01:48;;;;;;;16.88;13.35;;;;;;;;;;4909919;28;20078;-81
2023/08/15 04:04:14;;;;;;;20.48;13.07;;;;;;;;;;4920009;28;20133;-82
2023/08/15 04:06:41;;;;;;;21.45;12.80;;;;;;;;;;4919157;28;20058;-81
2023/08/15 04:09:07;;;;;;;21.13;12.63;;;;;;;;;;4917441;28;20070;-81
2023/08/15 04:11:33;;;;;;;18.33;13.65;;;;;;;;;;4931898;28;20118;-80
2023/08/15 04:13:59;;;;;;;18.33;12.90;;;;;;;;;;4930573;28;20051;-79
2023/08/15 04:16:25;;;;;;;16.83;14.15;;;;;;;;;;4928347;28;20047;-80
2023/08/15 04:18:51;;;;;;;20.55;14.60;;;;;;;;;;4904632;28;20055;-80
2023/08/15 04:21:18;;;;;;;20.38;14.57;;;;;;;;;;4903527;28;20035;-80
2023/08/15 04:23:44;;;;;;;19.27;14.32;;;;;;;;;;4920804;28;20047;-80
2023/08/15 04:26:10;;;;;;;20.98;14.50;;;;;;;;;;4934084;28;20134;-80
2023/08/15 04:28:36;;;;;;;19.73;14.48;;;;;;;;;;4931072;28;20082;-80
2023/08/15 04:31:03;;;;;;;24.02;15.52;;;;;;;;;;4936823;28;20479;-80
2023/08/15 04:33:29;;;;;;;21.85;15.50;;;;;;;;;;4933629;28;22301;-80
2023/08/15 04:35:55;;;;;;;20.95;15.25;;;;;;;;;;4918610;28;20078;-81
2023/08/15 04:38:21;;;;;;;21.30;15.27;;;;;;;;;;4916225;28;20853;-81
2023/08/15 04:40:48;;;;;;;19.92;15.82;;;;;;;;;;4908895;28;20108;-81
2023/08/15 04:43:14;;;;;;;19.90;15.63;;;;;;;;;;4913628;28;20031;-81
2023/08/15 04:45:40;;;;;;;20.77;15.60;;;;;;;;;;4914859;28;20043;-81
2023/08/15 04:48:09;;;;;;;25.17;15.80;;;;;;;;;;4918776;28;20055;-81
2023/08/15 04:50:35;;;;;;;21.73;15.88;;;;;;;;;;4913831;28;20126;-80
2023/08/15 04:53:01;;;;;;;21.08;15.77;;;;;;;;;;4910763;28;20039;-81
2023/08/15 04:55:27;;;;;;;26.02;15.20;;;;;;;;;;4902041;28;21828;-81
2023/08/15 04:57:53;;;;;;;23.27;14.45;;;;;;;;;;4917321;28;20058;-80
2023/08/15 05:00:19;;;;;;;21.90;15.55;;;;;;;;;;4900475;28;20055;-82
2023/08/15 05:02:49;;;;;;;20.63;16.33;;;;;;;;;;4887457;28;20102;-81
2023/08/15 05:05:15;;;;;;;19.30;15.45;;;;;;;;;;4887049;28;20587;-81
2023/08/15 05:07:41;;;;;;;20.48;14.73;;;;;;;;;;4905946;28;20133;-81
2023/08/15 05:10:08;;;;;;;18.25;15.88;;;;;;;;;;4920090;28;20046;-81
2023/08/15 05:12:34;;;;;;;17.83;14.68;;;;;;;;;;4910286;28;20051;-81
2023/08/15 05:15:00;;;;;;;21.02;14.95;;;;;;;;;;4907322;28;20623;-80
2023/08/15 05:17:26;;;;;;;21.65;14.23;;;;;;;;;;4921887;28;20039;-81
2023/08/15 05:19:52;;;;;;;20.00;14.75;;;;;;;;;;4903584;28;20510;-81
2023/08/15 05:22:19;;;;;;;18.50;15.07;;;;;;;;;;4904612;28;20055;-80
2023/08/15 05:24:45;;;;;;;22.15;14.02;;;;;;;;;;4910115;28;20046;-81
2023/08/15 05:27:15;;;;;;;16.58;14.50;;;;;;;;;;4924016;28;20047;-82
2023/08/15 05:29:41;;;;;;;27.33;14.48;;;;;;;;;;4911481;28;20039;-82
2023/08/15 05:32:08;;;;;;;17.00;13.63;;;;;;;;;;4917831;28;20047;-82
2023/08/15 05:34:34;;;;;;;18.45;13.63;;;;;;;;;;4926180;28;20046;-83
2023/08/15 05:37:00;;;;;;;16.95;12.93;;;;;;;;;;4916743;28;20151;-82
2023/08/15 05:39:26;;;;;;;15.38;13.52;;;;;;;;;;4918487;28;20047;-83
2023/08/15 05:41:52;;;;;;;22.42;14.95;;;;;;;;;;4920596;28;20039;-83
2023/08/15 05:44:18;;;;;;;20.33;14.70;;;;;;;;;;4922920;28;20055;-82
2023/08/15 05:46:44;;;;;;;20.70;12.95;;;;;;;;;;4936599;28;20070;-81
2023/08/15 05:49:10;;;;;;;14.95;10.73;;;;;;;;;;4945659;28;20039;-82
2023/08/15 05:51:36;;;;;;;13.48;9.63;;;;;;;;;;4937122;28;20526;-81
2023/08/15 05:54:02;;;;;;;13.13;9.23;;;;;;;;;;4921162;28;20162;-81
2023/08/15 05:56:28;;;;;;;15.48;9.02;;;;;;;;;;4933441;28;20047;-82
2023/08/15 05:58:54;;;;;;;15.57;9.65;;;;;;;;;;4928291;28;20063;-80
2023/08/15 06:01:21;;;;;;;15.23;10.10;;;;;;;;;;4943897;28;20043;-81
2023/08/15 06:03:47;;;;;;;17.38;10.32;;;;;;;;;;4914881;28;20036;-82
2023/08/15 06:06:13;;;;;;;10.52;8.88;;;;;;;;;;4929681;28;20055;-84
2023/08/15 06:08:40;;;;;;;14.73;8.63;;;;;;;;;;4922336;28;20050;-83
2023/08/15 06:11:06;;;;;;;17.75;9.90;;;;;;;;;;4922048;28;20047;-82
2023/08/15 06:13:32;;;;;;;13.13;9.18;;;;;;;;;;4914168;28;20050;-83
2023/08/15 06:15:58;;;;;;;17.33;9.75;;;;;;;;;;4916346;28;20511;-82
2023/08/15 06:18:25;;;;;;;18.40;9.80;;;;;;;;;;4931630;28;20053;-82
2023/08/15 06:20:51;;;;;;;14.73;9.88;;;;;;;;;;4938285;28;20040;-82
2023/08/15 06:23:17;;;;;;;15.27;8.95;;;;;;;;;;4923630;28;20051;-82
2023/08/15 06:25:43;;;;;;;18.85;9.82;;;;;;;;;;4944471;28;20043;-81
2023/08/15 06:28:09;;;;;;;12.25;9.07;;;;;;;;;;4925847;28;20510;-80
2023/08/15 06:30:35;;;;;;;16.63;9.65;;;;;;;;;;4912527;28;20047;-81
2023/08/15 06:33:02;;;;;;;14.30;9.40;;;;;;;;;;4911964;28;20503;-82
2023/08/15 06:35:28;;;;;;;14.10;9.40;;;;;;;;;;4940921;28;20046;-82
2023/08/15 06:37:55;;;;;;;16.08;9.93;;;;;;;;;;4930156;28;20047;-81
2023/08/15 06:40:21;;;;;;;17.77;9.85;;;;;;;;;;4901089;28;20039;-82
2023/08/15 06:42:47;;;;;;;15.43;8.95;;;;;;;;;;4920595;28;20043;-83
2023/08/15 06:45:16;;;;;;;17.85;8.75;;;;;;;;;;4891686;28;21133;-81
2023/08/15 06:47:42;;;;;;;13.60;8.48;;;;;;;;;;4911667;28;20119;-81
2023/08/15 06:50:09;;;;;;;15.43;8.55;;;;;;;;;;4944117;28;20122;-82
2023/08/15 06:52:35;;;;;;;14.02;8.75;;;;;;;;;;4942453;28;20034;-82
2023/08/15 06:55:04;;;;;;;17.27;7.82;;;;;;;;;;4927665;28;20050;-82
2023/08/15 06:57:31;;;;;;;10.55;6.82;;;;;;;;;;4925903;28;20070;-80
2023/08/15 06:59:57;;;;;;;12.70;6.47;;;;;;;;;;4944329;28;20055;-80
2023/08/15 07:02:23;;;;;;;16.67;6.88;;;;;;;;;;4929772;28;20087;-82
2023/08/15 07:04:50;;;;;;;15.00;6.47;;;;;;;;;;4931824;28;20051;-82
2023/08/15 07:07:17;;;;;;;12.55;5.95;;;;;;;;;;4950338;28;20572;-82
2023/08/15 07:09:44;;;;;;;10.00;5.40;;;;;;;;;;4918650;28;20077;-82
2023/08/15 07:12:10;;;;;;;11.15;5.15;;;;;;;;;;4925752;28;21021;-81
2023/08/15 07:14:36;;;;;;;15.32;5.57;;;;;;;;;;4925556;28;20700;-83
2023/08/15 07:17:02;;;;;;;11.35;4.55;;;;;;;;;;4928567;28;20055;-81
2023/08/15 07:19:28;;;;;;;17.05;6.07;;;;;;;;;;4930411;28;20044;-82
2023/08/15 07:21:54;;;;;;;17.05;5.25;;;;;;;;;;4936751;28;20047;-81
2023/08/15 07:24:21;;;;;;;12.30;4.90;;;;;;;;;;4937585;28;20043;-82
2023/08/15 07:26:47;;;;;;;18.10;6.05;;;;;;;;;;4916460;28;21513;-81
2023/08/15 07:29:13;;;;;;;12.10;6.13;;;;;;;;;;4924384;28;23415;-80
2023/08/15 07:31:40;;;;;;;18.27;6.55;;;;;;;;;;4912600;28;21023;-80
2023/08/15 07:34:07;;;;;;;15.25;6.75;;;;;;;;;;4900502;28;20963;-79
2023/08/15 07:36:34;;;;;;;17.65;6.47;;;;;;;;;;4920137;28;20060;-80
2023/08/15 07:39:00;;;;;;;13.60;5.80;;;;;;;;;;4913450;28;20080;-81
2023/08/15 07:41:26;;;;;;;15.48;6.70;;;;;;;;;;4929704;28;20051;-79
2023/08/15 07:43:52;;;;;;;18.25;6.35;;;;;;;;;;4934245;28;20058;-78
2023/08/15 07:46:18;;;;;;;12.88;5.93;;;;;;;;;;4925237;28;20099;-81
2023/08/15 07:48:44;;;;;;;16.67;5.85;;;;;;;;;;4928485;28;20047;-82
2023/08/15 07:51:11;;;;;;;14.75;5.70;;;;;;;;;;4921139;28;20047;-81
2023/08/15 07:53:37;;;;;;;14.27;5.75;;;;;;;;;;4936892;28;20043;-80
2023/08/15 07:56:03;;;;;;;11.95;6.10;;;;;;;;;;4938198;28;20055;-81
2023/08/15 07:58:31;;;;;;;13.40;6.72;;;;;;;;;;4934822;28;20388;-81
2023/08/15 08:00:58;;;;;;;11.73;6.18;;;;;;;;;;4930746;28;20047;-81
2023/08/15 08:03:24;;;;;;;12.95;6.55;;;;;;;;;;4925430;28;20046;-81
2023/08/15 08:05:50;;;;;;;17.17;5.93;;;;;;;;;;4922094;28;20859;-81
2023/08/15 08:08:17;;;;;;;8.82;5.47;;;;;;;;;;4910803;28;20073;-81
2023/08/15 08:10:43;;;;;;;15.00;6.30;;;;;;;;;;4923161;28;20035;-80
2023/08/15 08:13:11;;;;;;;11.40;5.15;;;;;;;;;;4928744;28;20571;-81
2023/08/15 08:15:38;;;;;;;7.72;4.28;;;;;;;;;;4928714;28;20511;-81
2023/08/15 08:18:05;;;;;;;11.63;3.72;;;;;;;;;;4936464;28;20079;-81
2023/08/15 08:20:32;;;;;;;10.32;3.67;;;;;;;;;;4917031;28;20039;-81
2023/08/15 08:22:58;;;;;;;19.70;4.32;;;;;;;;;;4941114;28;20042;-82
2023/08/15 08:25:25;;;;;;;12.68;3.53;;;;;;;;;;4913845;28;20054;-81
2023/08/15 08:27:51;;;;;;;17.58;3.97;;;;;;;;;;4919288;28;20218;-81
2023/08/15 08:30:18;;;;;;;8.18;3.53;;;;;;;;;;4933035;28;20043;-79
2023/08/15 08:32:45;;;;;;;6.88;2.92;;;;;;;;;;4962822;28;20036;-81
2023/08/15 08:35:15;;;;;;;10.65;3.17;;;;;;;;;;4936697;28;20062;-78
2023/08/15 08:37:41;;;;;;;7.20;2.50;;;;;;;;;;4902415;28;20086;-84
2023/08/15 08:40:08;;;;;;;8.57;2.13;;;;;;;;;;4916251;28;20051;-81
2023/08/15 08:42:35;;;;;;;7.32;2.58;;;;;;;;;;4936409;28;20487;-83
2023/08/15 08:45:02;;;;;;;5.82;2.13;;;;;;;;;;4920055;28;20040;-80
2023/08/15 08:47:30;;;;;;;10.25;2.45;;;;;;;;;;4923358;28;20142;-81
2023/08/15 08:49:59;;;;;;;3.80;1.98;;;;;;;;;;4922626;28;20046;-79
2023/08/15 08:52:27;;;;;;;5.68;2.08;;;;;;;;;;4926417;28;20040;-80
2023/08/15 08:54:53;;;;;;;8.07;2.40;;;;;;;;;;4921750;28;20574;-81
2023/08/15 08:57:20;;;;;;;4.40;1.77;;;;;;;;;;4922830;28;20035;-80
2023/08/15 08:59:46;;;;;;;7.43;2.65;;;;;;;;;;4925382;28;20051;-81
2023/08/15 09:02:14;;;;;;;7.45;2.20;;;;;;;;;;4915938;28;20058;-82
2023/08/15 09:04:41;;;;;;;8.38;2.22;;;;;;;;;;4928741;28;20042;-82
2023/08/15 09:07:07;;;;;;;6.60;2.00;;;;;;;;;;4934142;28;20051;-82
2023/08/15 09:09:33;;;;;;;6.50;2.22;;;;;;;;;;4928396;28;20032;-81
2023/08/15 09:11:59;;;;;;;12.07;2.45;;;;;;;;;;4921465;28;20040;-82
2023/08/15 09:14:25;;;;;;;10.85;2.53;;;;;;;;;;4933336;28;20118;-80
2023/08/15 09:16:52;;;;;;;6.35;2.58;;;;;;;;;;4910723;28;20129;-80
2023/08/15 09:19:18;;;;;;;8.60;2.83;;;;;;;;;;4933200;28;20054;-79
2023/08/15 09:21:44;;;;;;;11.27;2.00;;;;;;;;;;4931923;28;20043;-80
2023/08/15 09:24:11;;;;;;;7.60;3.00;;;;;;;;;;4902755;28;20054;-81
2023/08/15 09:26:37;;;;;;;10.20;3.17;;;;;;;;;;4931233;28;20054;-81
2023/08/15 09:29:04;;;;;;;7.10;2.35;;;;;;;;;;4914272;28;20106;-81
2023/08/15 09:31:30;;;;;;;7.32;2.22;;;;;;;;;;4918812;28;20058;-81
2023/08/15 09:33:57;;;;;;;3.70;1.77;;;;;;;;;;4927484;28;20138;-81
2023/08/15 09:36:23;;;;;;;5.53;2.30;;;;;;;;;;4903287;28;20150;-81
2023/08/15 09:38:53;;;;;;;6.60;1.77;;;;;;;;;;4925612;28;20503;-82
2023/08/15 09:41:23;;;;;;;8.10;2.40;;;;;;;;;;4917428;28;20047;-81
2023/08/15 09:43:50;;;;;;;5.00;1.90;;;;;;;;;;4917942;28;20058;-80
2023/08/15 09:46:17;;;;;;;5.55;2.08;;;;;;;;;;4936511;28;20154;-81
2023/08/15 09:48:45;;;;;;;10.57;1.90;;;;;;;;;;4919020;28;20044;-81
2023/08/15 09:51:12;;;;;;;3.25;1.55;;;;;;;;;;4935888;28;20063;-80
2023/08/15 09:53:39;;;;;;;5.45;1.58;;;;;;;;;;4913785;28;20047;-78
2023/08/15 09:56:05;;;;;;;5.55;2.13;;;;;;;;;;4905343;28;20047;-79
2023/08/15 09:58:31;;;;;;;5.10;1.98;;;;;;;;;;4905472;28;20042;-80
2023/08/15 10:00:58;;;;;;;8.10;1.95;;;;;;;;;;4923896;28;20047;-81
2023/08/15 10:03:25;;;;;;;5.50;1.70;;;;;;;;;;4938730;28;20078;-81
2023/08/15 10:05:55;;;;;;;11.27;1.90;;;;;;;;;;4924564;28;20158;-80
2023/08/15 10:08:22;;;;;;;6.43;1.95;;;;;;;;;;4938035;28;20609;-80
2023/08/15 10:10:50;;;;;;;5.88;1.90;;;;;;;;;;4919565;28;20043;-80
2023/08/15 10:13:17;;;;;;;8.32;1.90;;;;;;;;;;4935819;28;20520;-81
2023/08/15 10:15:43;;;;;;;4.35;1.35;;;;;;;;;;4902425;28;21052;-79
2023/08/15 10:18:09;;;;;;;8.65;1.75;;;;;;;;;;4931499;28;20050;-80
2023/08/15 10:20:36;;;;;;;5.88;1.45;;;;;;;;;;4911761;28;20818;-81
2023/08/15 10:23:03;;;;;;;6.75;1.70;;;;;;;;;;4911349;28;20074;-80
2023/08/15 10:25:34;;;;;;;5.10;1.67;;;;;;;;;;4884930;28;20047;-80
2023/08/15 10:28:03;;;;;;;4.28;1.40;;;;;;;;;;4907311;28;20051;-79
2023/08/15 10:30:32;;;;;;;6.75;1.80;;;;;;;;;;4917605;28;20057;-79
2023/08/15 10:33:19;;;;;;;5.63;1.67;;;;;;;;;;4911309;28;20057;-78
2023/08/15 10:35:53;;;;;;;10.52;2.17;;;;;;;;;;4918129;28;20106;-80
2023/08/15 10:38:20;;;;;;;6.25;2.33;;;;;;;;;;4919483;28;20083;-80
2023/08/15 10:40:47;;;;;;;5.40;1.38;;;;;;;;;;4914614;28;20070;-80
2023/08/15 10:43:14;;;;;;;5.35;1.60;;;;;;;;;;4928845;28;20043;-79
2023/08/15 10:45:41;;;;;;;5.00;1.55;;;;;;;;;;4938144;28;20102;-81
2023/08/15 10:48:08;;;;;;;4.50;1.60;;;;;;;;;;4918583;28;20042;-78
2023/08/15 10:50:35;;;;;;;5.40;1.63;;;;;;;;;;4930635;28;20052;-80
2023/08/15 10:53:02;;;;;;;5.30;1.27;;;;;;;;;;4924352;28;20049;-79
2023/08/15 10:55:29;;;;;;;6.25;1.60;;;;;;;;;;4907627;28;20067;-79
2023/08/15 10:57:55;;;;;;;3.45;1.65;;;;;;;;;;4899273;28;20567;-80
2023/08/15 11:00:22;;;;;;;6.75;1.85;;;;;;;;;;4934477;28;20042;-80
2023/08/15 11:02:49;;;;;;;7.15;1.55;;;;;;;;;;4930070;28;20042;-80
2023/08/15 11:05:15;;;;;;;5.45;1.60;;;;;;;;;;4893471;28;20055;-81
2023/08/15 11:07:42;;;;;;;6.28;1.75;;;;;;;;;;4913258;28;20048;-82
2023/08/15 11:10:14;;;;;;;4.93;1.40;;;;;;;;;;4914945;28;20130;-79
2023/08/15 11:12:58;;;;;;;5.60;1.60;;;;;;;;;;4915386;28;20047;-79
2023/08/15 11:15:36;;;;;;;5.63;1.67;;;;;;;;;;4926773;28;20132;-83
2023/08/15 11:18:15;;;;;;;3.33;1.58;;;;;;;;;;4921761;28;20051;-82
2023/08/15 11:21:04;;;;;;;5.95;1.80;;;;;;;;;;4920859;28;20059;-81
2023/08/15 11:23:31;;;;;;;4.45;1.42;;;;;;;;;;4923265;28;20051;-83
2023/08/15 11:26:03;;;;;;;4.63;1.70;;;;;;;;;;4916390;28;20043;-81
2023/08/15 11:28:35;;;;;;;3.78;1.25;;;;;;;;;;4925616;28;20057;-83
2023/08/15 11:31:28;;;;;;;3.42;1.60;;;;;;;;;;4934245;28;20114;-82
2023/08/15 11:33:54;;;;;;;8.00;1.55;;;;;;;;;;4913582;28;20553;-82
2023/08/15 11:36:34;;;;;;;6.78;1.23;;;;;;;;;;4921451;28;20035;-84
2023/08/15 11:39:01;;;;;;;7.32;1.60;;;;;;;;;;4914051;28;20054;-83
2023/08/15 11:41:36;;;;;;;3.28;1.27;;;;;;;;;;4914562;28;20575;-82
2023/08/15 11:44:06;;;;;;;5.50;1.70;;;;;;;;;;4922099;28;20942;-83
2023/08/15 11:46:37;;;;;;;4.70;1.30;;;;;;;;;;4911392;28;20043;-83
2023/08/15 11:49:03;;;;;;;3.80;1.48;;;;;;;;;;4923133;28;20051;-85
2023/08/15 11:51:29;;;;;;;3.58;1.50;;;;;;;;;;4918199;28;20087;-82
2023/08/15 11:53:56;;;;;;;5.75;1.20;;;;;;;;;;4919365;28;20071;-84
2023/08/15 11:56:25;;;;;;;3.67;1.15;;;;;;;;;;4925419;28;20419;-82
2023/08/15 11:58:58;;;;;;;3.40;1.33;;;;;;;;;;4907114;28;20047;-81
2023/08/15 12:01:27;;;;;;;5.82;1.30;;;;;;;;;;4911610;28;20075;-82
2023/08/15 12:03:59;;;;;;;4.93;1.67;;;;;;;;;;4925505;28;20137;-81
2023/08/15 12:06:26;;;;;;;3.88;1.45;;;;;;;;;;4899153;28;20050;-81
2023/08/15 12:08:55;;;;;;;3.67;1.40;;;;;;;;;;4922243;28;20086;-84
2023/08/15 12:11:24;;;;;;;4.10;1.42;;;;;;;;;;4916301;28;20051;-83
2023/08/15 12:13:51;;;;;;;9.80;1.60;;;;;;;;;;4918114;28;21271;-83
2023/08/15 12:16:20;;;;;;;6.90;1.85;;;;;;;;;;4912746;28;20130;-83
2023/08/15 12:18:56;;;;;;;;;;;;;;;;;;;;;
2023/08/15 12:21:32;;;;;;;4.25;1.40;;;;;;;;;;4932998;28;20050;-84
2023/08/15 12:24:09;;;;;;;4.25;1.33;;;;;;;;;;4942496;28;20399;-84
2023/08/15 12:26:40;;;;;;;5.78;1.67;;;;;;;;;;4917850;28;20035;-84
2023/08/15 12:29:09;;;;;;;4.25;1.85;;;;;;;;;;4928439;28;20291;-84
2023/08/15 12:31:36;;;;;;;3.60;1.15;;;;;;;;;;4940312;28;20099;-82
2023/08/15 12:34:12;;;;;;;7.43;1.52;;;;;;;;;;4934367;28;20135;-82
2023/08/15 12:36:40;;;;;;;4.45;1.20;;;;;;;;;;4928726;28;20036;-83
2023/08/15 12:39:42;;;;;;;5.40;1.90;;;;;;;;;;4940480;28;20039;-83
2023/08/15 12:42:21;;;;;;;6.78;1.83;;;;;;;;;;4916102;28;20065;-83
2023/08/15 12:44:47;;;;;;;5.20;1.10;;;;;;;;;;4922535;28;20051;-83
2023/08/15 12:47:13;;;;;;;3.35;1.42;;;;;;;;;;4909380;28;20100;-83
2023/08/15 12:49:45;;;;;;;6.22;1.65;;;;;;;;;;4925181;28;20404;-81
2023/08/15 12:52:18;;;;;;;5.35;1.27;;;;;;;;;;4922756;28;20038;-83
2023/08/15 12:54:47;;;;;;;5.70;1.52;;;;;;;;;;4920838;28;21057;-83
2023/08/15 12:57:21;;;;;;;7.55;1.70;;;;;;;;;;4890352;28;20174;-82
2023/08/15 12:59:48;;;;;;;7.00;1.65;;;;;;;;;;4916238;28;20139;-82
2023/08/15 13:02:22;;;;;;;6.45;1.60;;;;;;;;;;4906590;28;20058;-83
2023/08/15 13:04:48;;;;;;;11.32;2.08;;;;;;;;;;4920421;28;20036;-83
2023/08/15 13:07:17;;;;;;;7.28;1.42;;;;;;;;;;4922516;28;20490;-83
2023/08/15 13:09:45;;;;;;;7.45;1.50;;;;;;;;;;4897989;28;20042;-82
2023/08/15 13:12:14;;;;;;;5.10;1.48;;;;;;;;;;4921259;28;20062;-82
2023/08/15 13:14:40;;;;;;;6.15;1.80;;;;;;;;;;4918115;29;20066;-82
2023/08/15 13:17:06;;;;;;;4.53;1.65;;;;;;;;;;4928227;28;20055;-82
2023/08/15 13:19:33;;;;;;;4.38;1.50;;;;;;;;;;4919082;29;20162;-78
2023/08/15 13:22:04;;;;;;;4.85;1.75;;;;;;;;;;4936233;28;20059;-83
2023/08/15 13:24:33;;;;;;;3.00;1.13;;;;;;;;;;4895044;29;20050;-84
2023/08/15 13:27:00;;;;;;;5.68;1.73;;;;;;;;;;4908379;28;20126;-84
2023/08/15 13:29:29;;;;;;;7.70;1.70;;;;;;;;;;4908781;29;20126;-83
2023/08/15 13:32:00;;;;;;;6.00;1.77;;;;;;;;;;4931388;28;20127;-84
2023/08/15 13:34:27;;;;;;;2.80;1.50;;;;;;;;;;4907904;29;20043;-84
2023/08/15 13:36:55;;;;;;;5.30;1.85;;;;;;;;;;4912894;29;20049;-84
2023/08/15 13:39:24;;;;;;;5.95;1.80;;;;;;;;;;4937437;28;20084;-84
2023/08/15 13:41:52;;;;;;;7.00;1.83;;;;;;;;;;4922492;28;20092;-84
2023/08/15 13:44:19;;;;;;;5.60;2.03;;;;;;;;;;4925977;28;20070;-87
2023/08/15 13:46:47;;;;;;;6.47;1.73;;;;;;;;;;4907194;29;20039;-84
2023/08/15 13:49:14;;;;;;;5.75;1.58;;;;;;;;;;4925295;28;20422;-84
2023/08/15 13:51:40;;;;;;;4.55;1.70;;;;;;;;;;4907185;29;20473;-84
2023/08/15 13:54:06;;;;;;;5.32;1.90;;;;;;;;;;4901269;29;21040;-83
2023/08/15 13:56:32;;;;;;;5.28;1.65;;;;;;;;;;4891022;29;20040;-81
2023/08/15 13:59:04;;;;;;;6.45;1.52;;;;;;;;;;4888479;29;20081;-84
2023/08/15 14:01:32;;;;;;;7.60;1.85;;;;;;;;;;4885256;29;20741;-82
2023/08/15 14:03:58;;;;;;;4.40;1.40;;;;;;;;;;4901654;29;20504;-83
2023/08/15 14:06:25;;;;;;;5.20;1.70;;;;;;;;;;4872482;29;21520;-86
2023/08/15 14:08:51;;;;;;;6.28;1.55;;;;;;;;;;4901567;29;20048;-86
2023/08/15 14:11:17;;;;;;;7.82;1.70;;;;;;;;;;4903329;28;20050;-85
2023/08/15 14:13:45;;;;;;;4.53;1.73;;;;;;;;;;4896546;28;20048;-83
2023/08/15 14:16:15;;;;;;;5.63;1.60;;;;;;;;;;4897456;29;20135;-83
2023/08/15 14:18:44;;;;;;;3.92;1.73;;;;;;;;;;4899369;29;20086;-85
2023/08/15 14:21:10;;;;;;;6.00;1.95;;;;;;;;;;4891587;29;20457;-83
2023/08/15 14:23:43;;;;;;;5.53;1.60;;;;;;;;;;4909512;28;20044;-85
2023/08/15 14:26:17;;;;;;;3.53;1.50;;;;;;;;;;4895581;29;22107;-87
2023/08/15 14:28:43;;;;;;;3.20;1.55;;;;;;;;;;4907851;29;20059;-84
2023/08/15 14:31:09;;;;;;;3.50;1.35;;;;;;;;;;4892030;29;20507;-86
2023/08/15 14:33:44;;;;;;;4.82;1.90;;;;;;;;;;4873715;29;20415;-87
2023/08/15 14:36:30;;;;;;;;;;;;;;;;;;;;;